Time;durP1;ratioP1;P1;durP2;ratioP2;P2;SDS_P1;SDS_P2;PMS_P1;PMS_P2;Temp;Humidity;BMP_temperature;BMP_pressure;BME280_temperature;BME280_humidity;BME280_pressure;Samples;Min_cycle;Max_cycle;Signal;HPM_P1;HPM_P2
2021/06/06 00:01:31;;;;;;;12.18;9.02;;;19.40;99.90;;;;;;5070914;28;20745;-60
2021/06/06 00:03:59;;;;;;;13.63;8.57;;;19.50;99.90;;;;;;5070625;28;20233;-59
2021/06/06 00:06:27;;;;;;;12.20;9.38;;;19.40;99.90;;;;;;5070606;28;20204;-59
2021/06/06 00:08:54;;;;;;;10.95;8.93;;;19.30;99.90;;;;;;5070873;28;20205;-59
2021/06/06 00:11:23;;;;;;;10.57;8.85;;;19.40;99.90;;;;;;5074483;28;20208;-60
2021/06/06 00:13:54;;;;;;;11.73;9.43;;;19.30;99.90;;;;;;5074839;28;20225;-60
2021/06/06 00:16:25;;;;;;;17.08;8.73;;;19.30;99.90;;;;;;5074787;28;20215;-59
2021/06/06 00:18:52;;;;;;;11.73;9.13;;;19.40;99.90;;;;;;5074705;28;20209;-59
2021/06/06 00:21:20;;;;;;;11.27;8.70;;;19.30;99.90;;;;;;5074910;28;20295;-60
2021/06/06 00:23:46;;;;;;;10.35;8.50;;;19.30;99.90;;;;;;5074474;28;20282;-60
2021/06/06 00:26:12;;;;;;;9.93;8.55;;;19.30;99.90;;;;;;5074932;28;20209;-59
2021/06/06 00:28:39;;;;;;;12.80;9.05;;;19.30;99.90;;;;;;5074794;28;20559;-60
2021/06/06 00:31:08;;;;;;;10.98;8.50;;;19.30;99.90;;;;;;5074617;28;20209;-59
2021/06/06 00:33:35;;;;;;;10.43;8.63;;;19.20;99.90;;;;;;5074274;28;20205;-59
2021/06/06 00:36:04;;;;;;;12.27;9.25;;;19.20;99.90;;;;;;5074631;28;20211;-60
2021/06/06 00:38:30;;;;;;;12.55;8.60;;;19.20;99.90;;;;;;5074686;28;20206;-60
2021/06/06 00:40:58;;;;;;;10.75;8.02;;;19.20;99.90;;;;;;5074848;28;20201;-60
2021/06/06 00:43:24;;;;;;;10.95;8.70;;;19.20;99.90;;;;;;5074452;28;20224;-59
2021/06/06 00:45:51;;;;;;;11.60;8.93;;;19.20;99.90;;;;;;5074368;28;20201;-60
2021/06/06 00:48:17;;;;;;;12.65;8.90;;;19.20;99.90;;;;;;5074706;28;20588;-61
2021/06/06 00:50:48;;;;;;;11.93;8.95;;;19.20;99.90;;;;;;5074682;28;20205;-60
2021/06/06 00:53:22;;;;;;;11.32;8.48;;;19.20;99.90;;;;;;5074219;28;20209;-59
2021/06/06 00:55:50;;;;;;;11.98;8.80;;;19.20;99.90;;;;;;5073939;28;20224;-60
2021/06/06 00:58:17;;;;;;;10.15;8.95;;;19.10;99.90;;;;;;5073990;28;20679;-59
2021/06/06 01:00:46;;;;;;;10.05;8.57;;;19.00;99.90;;;;;;5074249;28;20670;-59
2021/06/06 01:03:13;;;;;;;10.43;8.95;;;19.00;99.90;;;;;;5074235;28;20224;-60
2021/06/06 01:05:42;;;;;;;10.30;8.35;;;19.00;99.90;;;;;;5073598;28;20232;-59
2021/06/06 01:08:12;;;;;;;12.25;8.50;;;19.00;99.90;;;;;;5073496;28;20209;-60
2021/06/06 01:10:40;;;;;;;11.27;7.72;;;19.00;99.90;;;;;;5073809;28;20208;-59
2021/06/06 01:13:16;;;;;;;9.23;7.95;;;18.90;99.90;;;;;;5073613;28;20201;-59
2021/06/06 01:15:46;;;;;;;12.65;8.75;;;19.00;99.90;;;;;;5073635;28;20235;-59
2021/06/06 01:18:24;;;;;;;10.17;8.63;;;18.90;99.90;;;;;;5073485;28;20240;-59
2021/06/06 01:21:00;;;;;;;11.55;9.45;;;18.90;99.90;;;;;;5073469;28;20554;-59
2021/06/06 01:24:01;;;;;;;12.82;9.23;;;18.80;99.90;;;;;;5073044;28;20224;-60
2021/06/06 01:26:31;;;;;;;10.52;8.88;;;18.90;99.90;;;;;;5067802;28;20201;-59
2021/06/06 01:29:04;;;;;;;14.18;10.38;;;18.90;99.90;;;;;;5073411;28;20212;-59
2021/06/06 01:31:34;;;;;;;10.50;9.20;;;18.80;99.90;;;;;;5073488;28;20201;-59
2021/06/06 01:34:03;;;;;;;11.70;9.18;;;18.80;99.90;;;;;;5073088;28;20638;-59
2021/06/06 01:36:34;;;;;;;12.13;9.20;;;18.90;99.90;;;;;;5073488;28;20262;-59
2021/06/06 01:39:08;;;;;;;11.18;8.75;;;18.80;99.90;;;;;;5073492;28;20209;-59
2021/06/06 01:41:37;;;;;;;11.45;8.77;;;18.90;99.90;;;;;;5073461;28;20839;-59
2021/06/06 01:44:09;;;;;;;10.02;8.70;;;18.70;99.90;;;;;;5073337;28;20611;-59
2021/06/06 01:46:38;;;;;;;10.20;8.17;;;18.70;99.90;;;;;;5073631;28;20209;-59
2021/06/06 01:49:06;;;;;;;11.98;8.80;;;18.70;99.90;;;;;;5073037;28;20236;-59
2021/06/06 01:51:35;;;;;;;10.23;8.30;;;18.60;99.90;;;;;;5073323;28;20208;-59
2021/06/06 01:54:04;;;;;;;9.75;8.63;;;18.50;99.90;;;;;;5072864;28;20217;-59
2021/06/06 01:56:34;;;;;;;10.32;8.05;;;18.50;99.90;;;;;;5072893;28;20255;-59
2021/06/06 01:59:03;;;;;;;9.35;7.93;;;18.50;99.90;;;;;;5072809;28;20197;-59
2021/06/06 02:01:29;;;;;;;9.50;8.50;;;18.50;99.90;;;;;;5073122;28;20216;-59
2021/06/06 02:03:58;;;;;;;8.90;7.80;;;18.40;99.90;;;;;;5072558;28;20232;-59
2021/06/06 02:06:28;;;;;;;11.40;7.95;;;18.40;99.90;;;;;;5072729;28;20209;-59
2021/06/06 02:08:56;;;;;;;9.82;7.85;;;18.40;99.90;;;;;;5072667;28;20205;-59
2021/06/06 02:11:30;;;;;;;9.47;8.40;;;18.40;99.90;;;;;;5072926;28;20216;-59
2021/06/06 02:14:00;;;;;;;11.93;8.18;;;18.40;99.90;;;;;;5072519;28;20220;-59
2021/06/06 02:16:30;;;;;;;12.10;7.97;;;18.50;99.90;;;;;;5072694;28;20213;-59
2021/06/06 02:18:56;;;;;;;12.90;9.00;;;18.50;99.90;;;;;;5072371;28;20205;-59
2021/06/06 02:21:23;;;;;;;9.23;8.20;;;18.50;99.90;;;;;;5072438;28;20208;-59
2021/06/06 02:23:50;;;;;;;8.20;7.40;;;18.40;99.90;;;;;;5072280;28;20229;-59
2021/06/06 02:26:25;;;;;;;8.95;7.35;;;18.40;99.90;;;;;;5072518;28;20216;-59
2021/06/06 02:28:58;;;;;;;8.37;7.50;;;18.40;99.90;;;;;;5072063;28;20670;-59
2021/06/06 02:31:30;;;;;;;9.40;7.70;;;18.40;99.90;;;;;;5072248;28;20212;-59
2021/06/06 02:34:04;;;;;;;9.37;7.93;;;18.40;99.90;;;;;;5071323;28;20278;-59
2021/06/06 02:36:32;;;;;;;10.27;8.17;;;18.40;99.90;;;;;;5072035;28;20208;-59
2021/06/06 02:39:06;;;;;;;11.68;8.90;;;18.40;99.90;;;;;;5072047;28;20213;-59
2021/06/06 02:41:36;;;;;;;9.70;8.27;;;18.30;99.90;;;;;;5071878;28;20572;-59
2021/06/06 02:44:08;;;;;;;10.27;8.25;;;18.40;99.90;;;;;;5071557;28;20271;-59
2021/06/06 02:46:37;;;;;;;11.07;8.17;;;18.30;99.90;;;;;;5071926;28;20220;-59
2021/06/06 02:49:07;;;;;;;9.90;8.20;;;18.30;99.90;;;;;;5071967;28;20228;-59
2021/06/06 02:51:38;;;;;;;11.47;8.60;;;18.30;99.90;;;;;;5072107;28;20201;-59
2021/06/06 02:54:10;;;;;;;13.32;8.45;;;18.30;99.90;;;;;;5071733;28;20225;-59
2021/06/06 02:56:42;;;;;;;10.60;8.80;;;18.30;99.90;;;;;;5071950;28;20212;-59
2021/06/06 02:59:12;;;;;;;10.53;8.70;;;18.20;99.90;;;;;;5071743;28;20205;-59
2021/06/06 03:01:42;;;;;;;12.73;8.73;;;18.30;99.90;;;;;;5072101;28;20208;-59
2021/06/06 03:04:13;;;;;;;11.40;8.40;;;18.20;99.90;;;;;;5071665;28;20232;-59
2021/06/06 03:06:42;;;;;;;10.87;8.97;;;18.20;99.90;;;;;;5071741;28;20211;-58
2021/06/06 03:09:12;;;;;;;9.73;8.20;;;18.20;99.90;;;;;;5071882;28;20212;-58
2021/06/06 03:11:41;;;;;;;12.60;7.90;;;18.20;99.90;;;;;;5071391;28;20205;-59
2021/06/06 03:14:12;;;;;;;9.77;8.07;;;18.30;99.90;;;;;;5071497;28;20573;-59
2021/06/06 03:16:46;;;;;;;9.23;8.23;;;18.40;99.90;;;;;;5071512;28;20208;-59
2021/06/06 03:19:13;;;;;;;12.70;7.90;;;18.40;99.90;;;;;;5071299;28;20213;-59
2021/06/06 03:21:44;;;;;;;10.37;8.27;;;18.40;99.90;;;;;;5071424;28;20208;-59
2021/06/06 03:24:14;;;;;;;9.40;8.25;;;18.30;99.90;;;;;;5071438;28;20225;-59
2021/06/06 03:26:42;;;;;;;10.40;8.53;;;18.30;99.90;;;;;;5071142;28;20201;-59
2021/06/06 03:29:13;;;;;;;12.10;8.70;;;18.30;99.90;;;;;;5071239;28;20293;-59
2021/06/06 03:31:44;;;;;;;11.57;9.03;;;18.20;99.90;;;;;;5071199;28;20223;-59
2021/06/06 03:34:11;;;;;;;12.20;9.30;;;18.20;99.90;;;;;;5071004;28;20225;-59
2021/06/06 03:36:39;;;;;;;10.20;8.77;;;18.10;99.90;;;;;;5071013;28;20310;-59
2021/06/06 03:39:10;;;;;;;10.95;8.40;;;18.10;99.90;;;;;;5071171;28;20213;-59
2021/06/06 03:41:37;;;;;;;11.63;8.83;;;18.00;99.90;;;;;;5071405;28;20201;-59
2021/06/06 03:44:03;;;;;;;11.00;9.13;;;18.00;99.90;;;;;;5070252;28;20225;-59
2021/06/06 03:46:31;;;;;;;12.05;8.70;;;18.00;99.90;;;;;;5070818;28;20211;-59
2021/06/06 03:48:58;;;;;;;12.15;9.75;;;17.90;99.90;;;;;;5070821;28;20212;-59
2021/06/06 03:51:25;;;;;;;10.37;8.53;;;17.80;99.90;;;;;;5070737;28;20688;-59
2021/06/06 03:53:52;;;;;;;13.95;8.35;;;17.70;99.90;;;;;;5070596;28;20221;-59
2021/06/06 03:56:18;;;;;;;10.90;8.50;;;17.60;99.90;;;;;;5071038;28;20554;-60
2021/06/06 03:58:44;;;;;;;12.00;8.07;;;17.60;99.90;;;;;;5070713;28;20205;-59
2021/06/06 04:01:11;;;;;;;9.77;7.30;;;17.60;99.90;;;;;;5070891;28;20208;-59
2021/06/06 04:03:39;;;;;;;10.73;8.17;;;17.60;99.90;;;;;;5070597;28;20231;-59
2021/06/06 04:06:07;;;;;;;10.23;7.70;;;17.60;99.90;;;;;;5070739;28;20216;-59
2021/06/06 04:08:33;;;;;;;13.30;8.07;;;17.60;99.90;;;;;;5070822;28;20204;-59
2021/06/06 04:11:00;;;;;;;9.15;6.95;;;17.70;99.90;;;;;;5070967;28;20204;-59
2021/06/06 04:13:26;;;;;;;9.90;6.57;;;17.70;99.90;;;;;;5070557;28;20250;-59
2021/06/06 04:15:53;;;;;;;10.23;6.37;;;17.60;99.90;;;;;;5070732;28;20693;-59
2021/06/06 04:18:21;;;;;;;7.70;6.13;;;17.60;99.90;;;;;;5070408;28;20209;-59
2021/06/06 04:20:50;;;;;;;9.80;6.40;;;17.70;99.90;;;;;;5070680;28;20684;-59
2021/06/06 04:23:17;;;;;;;6.97;6.27;;;17.80;99.90;;;;;;5070945;28;20281;-59
2021/06/06 04:25:44;;;;;;;7.90;5.30;;;17.80;99.90;;;;;;5070628;28;20236;-59
2021/06/06 04:28:11;;;;;;;7.40;5.50;;;17.80;99.90;;;;;;5070582;28;20209;-59
2021/06/06 04:30:38;;;;;;;7.63;4.70;;;17.80;99.90;;;;;;5070599;28;20262;-59
2021/06/06 04:33:07;;;;;;;5.60;4.10;;;17.80;99.90;;;;;;5070404;28;20201;-59
2021/06/06 04:35:34;;;;;;;5.78;4.47;;;17.80;99.90;;;;;;5070483;28;20603;-59
2021/06/06 04:38:01;;;;;;;5.37;4.27;;;17.80;99.90;;;;;;5070820;28;20205;-59
2021/06/06 04:40:27;;;;;;;4.57;3.60;;;17.80;99.90;;;;;;5070343;28;20749;-59
2021/06/06 04:42:54;;;;;;;4.17;3.27;;;17.80;99.90;;;;;;5070422;28;20224;-59
2021/06/06 04:45:21;;;;;;;3.58;3.13;;;17.80;99.90;;;;;;5070289;28;20229;-59
2021/06/06 04:47:47;;;;;;;3.63;3.33;;;17.70;99.90;;;;;;5070226;28;20201;-59
2021/06/06 04:50:14;;;;;;;5.87;3.90;;;17.70;99.90;;;;;;5070594;28;20205;-59
2021/06/06 04:52:41;;;;;;;5.67;3.90;;;17.80;99.90;;;;;;5070538;28;20205;-59
2021/06/06 04:55:11;;;;;;;4.63;3.97;;;17.70;99.90;;;;;;5070493;28;20433;-59
2021/06/06 04:57:37;;;;;;;5.60;3.80;;;17.70;99.90;;;;;;5073828;28;20204;-59
2021/06/06 05:00:06;;;;;;;5.97;4.40;;;17.60;99.90;;;;;;5073920;28;20211;-59
2021/06/06 05:02:32;;;;;;;7.27;4.40;;;17.60;99.90;;;;;;5073976;28;20204;-59
2021/06/06 05:04:58;;;;;;;6.03;4.80;;;17.60;99.90;;;;;;5073839;28;20221;-59
2021/06/06 05:07:24;;;;;;;5.77;5.10;;;17.70;99.90;;;;;;5073886;28;20216;-59
2021/06/06 05:09:51;;;;;;;5.30;4.80;;;17.70;99.90;;;;;;5073644;28;20201;-59
2021/06/06 05:12:18;;;;;;;6.03;4.60;;;17.80;99.90;;;;;;5073626;28;20735;-59
2021/06/06 05:14:44;;;;;;;6.20;4.37;;;17.70;99.90;;;;;;5073398;28;20251;-59
2021/06/06 05:17:11;;;;;;;6.73;4.70;;;17.70;99.90;;;;;;5073775;28;20220;-58
2021/06/06 05:19:37;;;;;;;5.50;4.77;;;17.70;99.90;;;;;;5073523;28;20676;-58
2021/06/06 05:22:04;;;;;;;4.50;4.07;;;17.70;99.90;;;;;;5073618;28;20209;-59
2021/06/06 05:24:31;;;;;;;5.37;4.40;;;17.80;99.90;;;;;;5073090;28;20689;-59
2021/06/06 05:26:57;;;;;;;6.07;4.77;;;17.80;99.90;;;;;;5073548;28;20216;-58
2021/06/06 05:29:25;;;;;;;4.87;4.37;;;17.80;99.90;;;;;;5073344;28;20220;-59
2021/06/06 05:31:52;;;;;;;6.17;4.83;;;17.80;99.90;;;;;;5073631;28;20216;-58
2021/06/06 05:34:19;;;;;;;6.70;4.30;;;17.80;99.90;;;;;;5073403;28;20217;-58
2021/06/06 05:36:45;;;;;;;7.10;4.63;;;17.70;99.90;;;;;;5073621;28;20259;-58
2021/06/06 05:39:12;;;;;;;5.72;4.85;;;17.70;99.90;;;;;;5073513;28;20212;-58
2021/06/06 05:41:38;;;;;;;6.97;4.67;;;17.70;99.90;;;;;;5073566;28;20618;-58
2021/06/06 05:44:05;;;;;;;5.50;4.53;;;17.60;99.90;;;;;;5073076;28;20715;-58
2021/06/06 05:46:34;;;;;;;5.87;4.40;;;17.60;99.90;;;;;;5073465;28;20261;-58
2021/06/06 05:49:00;;;;;;;6.70;4.77;;;17.70;99.90;;;;;;5073200;28;20204;-58
2021/06/06 05:51:27;;;;;;;5.43;4.80;;;17.80;99.90;;;;;;5073210;28;20209;-58
2021/06/06 05:53:54;;;;;;;6.53;4.97;;;17.70;99.90;;;;;;5072697;28;20228;-59
2021/06/06 05:56:20;;;;;;;6.00;5.40;;;17.80;99.90;;;;;;5072890;28;20205;-59
2021/06/06 05:58:46;;;;;;;6.63;5.43;;;17.80;99.90;;;;;;5072884;28;20205;-59
2021/06/06 06:01:12;;;;;;;4.90;4.40;;;17.90;99.90;;;;;;5073219;28;20212;-59
2021/06/06 06:03:40;;;;;;;6.20;4.87;;;17.80;99.90;;;;;;5073428;28;20302;-59
2021/06/06 06:06:07;;;;;;;5.63;5.03;;;17.80;99.90;;;;;;5073247;28;20212;-58
2021/06/06 06:08:36;;;;;;;6.13;5.27;;;17.80;99.90;;;;;;5072162;28;20208;-59
2021/06/06 06:11:04;;;;;;;6.33;5.10;;;17.80;99.90;;;;;;5072657;28;20592;-59
2021/06/06 06:13:31;;;;;;;11.07;9.03;;;17.80;99.90;;;;;;5072457;28;20209;-59
2021/06/06 06:15:59;;;;;;;9.27;6.17;;;17.80;99.90;;;;;;5072582;28;20201;-58
2021/06/06 06:18:27;;;;;;;7.07;5.87;;;17.80;99.90;;;;;;5072420;28;20209;-59
2021/06/06 06:20:55;;;;;;;7.57;5.57;;;17.80;99.90;;;;;;5072550;28;20227;-58
2021/06/06 06:23:22;;;;;;;6.47;5.47;;;17.90;99.90;;;;;;5072486;28;20233;-59
2021/06/06 06:25:48;;;;;;;7.20;5.63;;;17.90;99.90;;;;;;5072508;28;20290;-59
2021/06/06 06:28:14;;;;;;;6.87;5.73;;;17.90;99.90;;;;;;5072653;28;20209;-59
2021/06/06 06:30:41;;;;;;;6.00;5.10;;;18.00;99.90;;;;;;5072241;28;20212;-59
2021/06/06 06:33:09;;;;;;;7.67;5.40;;;18.10;99.90;;;;;;5072347;28;20226;-58
2021/06/06 06:35:36;;;;;;;6.00;5.23;;;18.10;99.90;;;;;;5072034;28;20256;-59
2021/06/06 06:38:04;;;;;;;8.57;6.47;;;18.10;99.90;;;;;;5072054;28;20209;-59
2021/06/06 06:40:31;;;;;;;5.63;5.05;;;18.10;99.90;;;;;;5072359;28;20205;-59
2021/06/06 06:42:57;;;;;;;6.43;4.90;;;18.20;99.90;;;;;;5071801;28;20232;-59
2021/06/06 06:45:27;;;;;;;6.55;5.18;;;18.30;99.90;;;;;;5071798;28;20229;-59
2021/06/06 06:47:58;;;;;;;6.80;5.85;;;18.20;99.90;;;;;;5072134;28;20212;-59
2021/06/06 06:50:25;;;;;;;6.45;5.35;;;18.30;99.90;;;;;;5071913;28;20205;-59
2021/06/06 06:52:51;;;;;;;5.90;5.30;;;18.30;99.90;;;;;;5071677;28;20201;-59
2021/06/06 06:55:20;;;;;;;6.90;5.78;;;18.40;99.90;;;;;;5071715;28;20243;-59
2021/06/06 06:57:47;;;;;;;6.28;5.05;;;18.40;99.90;;;;;;5071510;28;20611;-59
2021/06/06 07:00:17;;;;;;;6.88;5.50;;;18.30;99.90;;;;;;5072128;28;20227;-59
2021/06/06 07:02:43;;;;;;;6.38;5.75;;;18.40;99.90;;;;;;5071444;28;20220;-59
2021/06/06 07:05:10;;;;;;;7.63;5.43;;;18.40;99.90;;;;;;5071260;28;20220;-59
2021/06/06 07:07:36;;;;;;;7.95;6.63;;;18.50;99.90;;;;;;5071392;28;20209;-59
2021/06/06 07:10:04;;;;;;;6.43;5.50;;;18.50;99.90;;;;;;5071801;28;20450;-59
2021/06/06 07:12:32;;;;;;;7.23;5.17;;;18.50;99.90;;;;;;5071577;28;20627;-59
2021/06/06 07:14:58;;;;;;;6.43;5.10;;;18.40;99.90;;;;;;5071279;28;20236;-59
2021/06/06 07:17:24;;;;;;;5.80;5.17;;;18.40;99.90;;;;;;5071331;28;20227;-59
2021/06/06 07:19:50;;;;;;;6.13;5.13;;;18.40;99.90;;;;;;5071093;28;20212;-59
2021/06/06 07:22:16;;;;;;;6.23;5.50;;;18.50;99.90;;;;;;5071572;28;20209;-59
2021/06/06 07:24:43;;;;;;;5.37;4.83;;;18.40;99.90;;;;;;5070885;28;20235;-59
2021/06/06 07:27:09;;;;;;;5.95;5.30;;;18.40;99.90;;;;;;5071409;28;20208;-59
2021/06/06 07:29:37;;;;;;;5.97;5.37;;;18.30;99.90;;;;;;5071085;28;20577;-59
2021/06/06 07:32:04;;;;;;;5.93;5.07;;;18.40;99.90;;;;;;5070985;28;20208;-59
2021/06/06 07:34:31;;;;;;;5.93;4.72;;;18.30;99.90;;;;;;5071019;28;20224;-59
2021/06/06 07:37:00;;;;;;;5.95;5.35;;;18.40;99.90;;;;;;5071328;28;20231;-59
2021/06/06 07:39:26;;;;;;;5.93;4.80;;;18.40;99.90;;;;;;5071239;28;20216;-60
2021/06/06 07:41:53;;;;;;;24.93;18.17;;;18.50;99.90;;;;;;5071168;28;20579;-59
2021/06/06 07:44:21;;;;;;;6.67;5.83;;;18.40;99.90;;;;;;5071347;28;20232;-59
2021/06/06 07:46:49;;;;;;;5.80;5.20;;;18.40;99.90;;;;;;5071259;28;20201;-59
2021/06/06 07:49:15;;;;;;;8.67;6.70;;;18.50;99.90;;;;;;5071259;28;20359;-59
2021/06/06 07:51:42;;;;;;;7.27;6.33;;;18.50;99.90;;;;;;5071322;28;20227;-59
2021/06/06 07:54:08;;;;;;;8.18;6.10;;;18.60;99.90;;;;;;5070926;28;20221;-59
2021/06/06 07:56:35;;;;;;;9.05;6.00;;;18.70;99.90;;;;;;5071292;28;20282;-59
2021/06/06 07:59:01;;;;;;;8.10;6.57;;;18.80;99.90;;;;;;5070839;28;20201;-60
2021/06/06 08:01:27;;;;;;;11.30;7.90;;;18.90;99.90;;;;;;5070875;28;20209;-58
2021/06/06 08:03:56;;;;;;;8.95;6.97;;;19.00;99.90;;;;;;5071049;28;20231;-59
2021/06/06 08:06:22;;;;;;;10.43;7.00;;;19.00;99.90;;;;;;5071285;28;20201;-60
2021/06/06 08:08:48;;;;;;;10.30;8.27;;;19.10;99.90;;;;;;5071699;28;20201;-59
2021/06/06 08:11:15;;;;;;;12.60;9.68;;;19.10;99.90;;;;;;5071129;28;20204;-59
2021/06/06 08:13:42;;;;;;;12.98;9.73;;;19.10;99.90;;;;;;5070576;28;20201;-60
2021/06/06 08:16:09;;;;;;;10.82;8.85;;;19.20;99.90;;;;;;5070720;28;20680;-59
2021/06/06 08:18:38;;;;;;;12.05;9.18;;;19.20;99.90;;;;;;5070872;28;20204;-61
2021/06/06 08:21:09;;;;;;;12.40;9.13;;;19.10;99.90;;;;;;5070986;28;20201;-60
2021/06/06 08:23:36;;;;;;;10.50;8.98;;;19.10;99.90;;;;;;5070649;28;20228;-60
2021/06/06 08:26:03;;;;;;;15.82;10.57;;;19.10;99.90;;;;;;5070449;28;20205;-60
2021/06/06 08:28:29;;;;;;;15.20;11.13;;;19.10;99.90;;;;;;5087723;28;20204;-63
2021/06/06 08:30:59;;;;;;;16.33;11.10;;;19.10;99.90;;;;;;5092819;28;20204;-63
2021/06/06 08:33:28;;;;;;;16.55;11.57;;;19.10;99.90;;;;;;5094892;28;20200;-65
2021/06/06 08:35:58;;;;;;;16.17;12.27;;;19.10;99.90;;;;;;5094659;28;20578;-65
2021/06/06 08:38:26;;;;;;;16.20;12.23;;;19.00;99.90;;;;;;5094526;28;20265;-65
2021/06/06 08:40:56;;;;;;;18.77;12.95;;;18.90;99.90;;;;;;5079579;28;20212;-64
2021/06/06 08:43:34;;;;;;;17.90;13.48;;;18.90;99.90;;;;;;5074298;28;20601;-61
2021/06/06 08:46:01;;;;;;;21.35;14.55;;;18.80;99.90;;;;;;5074427;28;20209;-59
2021/06/06 08:48:29;;;;;;;22.33;17.35;;;18.90;99.90;;;;;;5074432;28;20266;-59
2021/06/06 08:51:04;;;;;;;21.02;15.57;;;18.90;99.90;;;;;;5074266;28;20224;-60
2021/06/06 08:53:35;;;;;;;21.42;15.10;;;19.00;99.90;;;;;;5074045;28;20204;-59
2021/06/06 08:56:17;;;;;;;20.45;14.60;;;19.10;99.90;;;;;;5074570;28;20228;-59
2021/06/06 08:58:47;;;;;;;24.25;15.65;;;19.10;99.90;;;;;;5074334;28;20208;-59
2021/06/06 09:01:21;;;;;;;21.92;15.43;;;19.20;99.90;;;;;;5074389;28;20209;-60
2021/06/06 09:03:49;;;;;;;21.83;16.58;;;19.30;99.90;;;;;;5073931;28;20228;-59
2021/06/06 09:06:20;;;;;;;24.80;17.30;;;19.40;99.90;;;;;;5074339;28;20689;-59
2021/06/06 09:08:48;;;;;;;28.35;18.40;;;19.30;99.90;;;;;;5074336;28;20204;-59
2021/06/06 09:11:17;;;;;;;22.00;16.90;;;19.40;99.90;;;;;;5074272;28;20204;-59
2021/06/06 09:13:44;;;;;;;23.55;17.45;;;19.60;99.90;;;;;;5073974;28;20205;-60
2021/06/06 09:16:18;;;;;;;20.83;16.00;;;19.70;99.90;;;;;;5074105;28;20212;-60
2021/06/06 09:18:47;;;;;;;21.52;16.30;;;19.80;99.90;;;;;;5074012;28;20201;-60
2021/06/06 09:21:16;;;;;;;22.77;18.30;;;19.80;99.90;;;;;;5083501;28;20439;-64
2021/06/06 09:23:43;;;;;;;19.38;15.55;;;19.90;99.90;;;;;;5094117;28;20231;-65
2021/06/06 09:26:20;;;;;;;22.25;16.48;;;19.90;99.90;;;;;;5094298;28;20200;-63
2021/06/06 09:28:49;;;;;;;24.17;18.67;;;19.90;99.90;;;;;;5093572;28;20668;-64
2021/06/06 09:31:22;;;;;;;28.08;18.92;;;19.90;99.90;;;;;;5094028;28;20207;-62
2021/06/06 09:33:58;;;;;;;28.77;19.13;;;20.00;99.90;;;;;;5093556;28;20227;-63
2021/06/06 09:36:27;;;;;;;28.25;19.92;;;20.00;99.90;;;;;;5094249;28;20215;-61
2021/06/06 09:38:55;;;;;;;25.17;20.20;;;19.90;99.90;;;;;;5093459;28;20668;-62
2021/06/06 09:41:33;;;;;;;26.58;20.70;;;19.90;99.90;;;;;;5093562;28;20267;-63
2021/06/06 09:44:07;;;;;;;28.08;21.48;;;19.90;99.90;;;;;;5093340;28;20613;-61
2021/06/06 09:46:37;;;;;;;26.63;21.35;;;20.00;99.90;;;;;;5093742;28;20198;-58
2021/06/06 09:49:11;;;;;;;28.45;21.52;;;20.00;99.90;;;;;;5093589;28;20212;-60
2021/06/06 09:51:37;;;;;;;25.80;21.17;;;20.00;99.90;;;;;;5093861;28;20204;-62
2021/06/06 09:54:09;;;;;;;28.27;22.02;;;19.90;99.90;;;;;;5093648;28;20228;-60
2021/06/06 09:56:38;;;;;;;30.65;23.42;;;19.90;99.90;;;;;;5093417;28;20208;-59
2021/06/06 09:59:10;;;;;;;30.58;25.10;;;19.90;99.90;;;;;;5093265;28;20243;-61
2021/06/06 10:01:46;;;;;;;30.42;24.25;;;19.90;99.90;;;;;;5093400;28;20244;-61
2021/06/06 10:04:19;;;;;;;38.08;28.20;;;20.00;99.90;;;;;;5093087;28;20239;-59
2021/06/06 10:06:47;;;;;;;32.85;26.45;;;20.00;99.90;;;;;;5094018;28;20257;-63
2021/06/06 10:09:23;;;;;;;30.92;23.95;;;20.10;99.90;;;;;;5094028;28;20215;-64
2021/06/06 10:11:56;;;;;;;33.17;24.98;;;20.20;99.90;;;;;;5093348;28;20200;-62
2021/06/06 10:14:28;;;;;;;30.67;25.92;;;20.20;99.90;;;;;;5093012;28;20429;-62
2021/06/06 10:16:58;;;;;;;29.25;22.52;;;20.40;99.90;;;;;;5093665;28;20261;-65
2021/06/06 10:19:31;;;;;;;28.23;20.67;;;20.40;99.90;;;;;;5093456;28;20228;-67
2021/06/06 10:22:01;;;;;;;25.25;20.67;;;20.40;99.90;;;;;;5093000;28;20304;-61
2021/06/06 10:24:32;;;;;;;21.48;18.83;;;20.40;99.90;;;;;;5092636;28;20692;-61
2021/06/06 10:27:07;;;;;;;23.92;19.73;;;20.40;99.90;;;;;;5092876;28;20215;-62
2021/06/06 10:29:37;;;;;;;23.25;19.77;;;20.30;99.90;;;;;;5092977;28;20664;-62
2021/06/06 10:32:08;;;;;;;23.70;19.42;;;20.30;99.90;;;;;;5093121;28;20208;-63
2021/06/06 10:34:39;;;;;;;24.10;19.50;;;20.20;99.90;;;;;;5092558;28;20216;-62
2021/06/06 10:37:06;;;;;;;22.95;19.88;;;20.20;99.90;;;;;;5092700;28;20204;-59
2021/06/06 10:39:37;;;;;;;26.23;21.00;;;20.20;99.90;;;;;;5092560;28;20388;-61
2021/06/06 10:42:09;;;;;;;25.67;20.45;;;20.30;99.90;;;;;;5092560;28;20265;-60
2021/06/06 10:44:43;;;;;;;25.67;21.23;;;20.30;99.90;;;;;;5091807;28;20232;-60
2021/06/06 10:47:14;;;;;;;30.88;23.52;;;20.50;99.90;;;;;;5091967;28;20204;-64
2021/06/06 10:49:51;;;;;;;29.98;24.02;;;20.60;99.90;;;;;;5092576;28;20212;-61
2021/06/06 10:52:25;;;;;;;30.85;25.45;;;20.70;99.90;;;;;;5092447;28;20207;-62
2021/06/06 10:54:56;;;;;;;30.52;24.17;;;20.70;99.90;;;;;;5092119;28;20217;-61
2021/06/06 10:57:35;;;;;;;30.65;24.33;;;20.70;99.90;;;;;;5092880;28;20587;-62
2021/06/06 11:00:20;;;;;;;30.13;23.45;;;20.70;99.90;;;;;;5093343;28;20204;-62
2021/06/06 11:02:55;;;;;;;29.98;24.83;;;20.60;99.90;;;;;;5092156;28;20208;-57
2021/06/06 11:05:45;;;;;;;44.15;35.30;;;20.40;99.90;;;;;;5091930;28;20712;-57
2021/06/06 11:08:35;;;;;;;29.27;24.20;;;20.40;99.90;;;;;;5092228;28;20243;-57
2021/06/06 11:11:15;;;;;;;31.95;25.83;;;20.50;99.90;;;;;;5092098;28;20568;-56
2021/06/06 11:13:45;;;;;;;29.92;24.15;;;20.50;99.90;;;;;;5091997;28;20200;-56
2021/06/06 11:16:23;;;;;;;31.13;24.20;;;20.70;99.90;;;;;;5092164;28;20588;-57
2021/06/06 11:18:55;;;;;;;31.38;24.15;;;20.70;99.90;;;;;;5091978;28;20207;-57
2021/06/06 11:21:34;;;;;;;31.60;24.80;;;20.70;99.90;;;;;;5097973;28;20291;-60
2021/06/06 11:24:04;;;;;;;33.15;25.55;;;20.70;99.90;;;;;;5112009;28;20227;-58
2021/06/06 11:26:39;;;;;;;30.92;25.73;;;20.80;99.90;;;;;;5112587;28;20207;-58
2021/06/06 11:29:12;;;;;;;31.55;25.35;;;21.00;99.90;;;;;;5112076;28;20210;-60
2021/06/06 11:31:57;;;;;;;34.15;25.30;;;21.20;99.90;;;;;;5112080;28;20292;-59
2021/06/06 11:34:29;;;;;;;32.90;24.60;;;21.50;99.90;;;;;;5112134;28;20230;-59
2021/06/06 11:37:05;;;;;;;28.80;23.48;;;21.70;99.90;;;;;;5112407;28;20203;-59
2021/06/06 11:39:36;;;;;;;28.27;23.02;;;21.90;99.90;;;;;;5112210;28;20214;-60
2021/06/06 11:42:14;;;;;;;28.52;22.92;;;21.90;99.90;;;;;;5111703;28;20207;-59
2021/06/06 11:44:47;;;;;;;31.52;23.55;;;22.00;99.90;;;;;;5111594;28;20234;-59
2021/06/06 11:47:21;;;;;;;28.17;23.65;;;22.00;99.90;;;;;;5111818;28;20204;-59
2021/06/06 11:49:53;;;;;;;28.67;23.45;;;22.10;99.90;;;;;;5111977;28;20199;-59
2021/06/06 11:52:26;;;;;;;29.95;23.67;;;22.10;99.90;;;;;;5111695;28;20227;-60
2021/06/06 11:54:56;;;;;;;27.42;23.50;;;22.00;99.90;;;;;;5111949;28;20219;-60
2021/06/06 11:57:29;;;;;;;29.15;22.30;;;21.90;99.90;;;;;;5111897;28;20199;-59
2021/06/06 12:00:03;;;;;;;27.70;22.67;;;21.80;99.90;;;;;;5111957;28;20208;-60
2021/06/06 12:02:32;;;;;;;30.35;23.85;;;21.70;99.90;;;;;;5111972;28;20199;-59
2021/06/06 12:05:11;;;;;;;26.80;22.70;;;21.50;99.90;;;;;;5111758;28;20239;-59
2021/06/06 12:07:40;;;;;;;29.83;24.25;;;21.40;99.90;;;;;;5116197;28;20207;-59
2021/06/06 12:10:19;;;;;;;31.23;24.15;;;21.40;99.90;;;;;;5116306;28;20207;-60
2021/06/06 12:12:49;;;;;;;31.10;24.42;;;21.30;99.90;;;;;;5115799;28;20210;-59
2021/06/06 12:15:23;;;;;;;30.80;24.77;;;21.30;99.90;;;;;;5115698;28;20237;-60
2021/06/06 12:18:00;;;;;;;32.38;27.25;;;21.40;99.90;;;;;;5115532;28;20209;-60
2021/06/06 12:20:26;;;;;;;33.78;27.02;;;21.40;99.90;;;;;;5116169;28;20203;-61
2021/06/06 12:23:04;;;;;;;33.85;27.00;;;21.40;99.90;;;;;;5115849;28;20199;-62
2021/06/06 12:25:31;;;;;;;32.08;25.02;;;21.40;99.90;;;;;;5114977;28;20233;-59
2021/06/06 12:28:03;;;;;;;44.15;34.33;;;21.40;99.90;;;;;;5115326;28;20209;-60
2021/06/06 12:30:33;;;;;;;35.08;29.05;;;21.30;99.90;;;;;;5115631;28;20204;-61
2021/06/06 12:33:04;;;;;;;35.17;26.63;;;21.30;99.90;;;;;;5115433;28;20215;-60
2021/06/06 12:35:35;;;;;;;31.60;26.80;;;21.40;99.90;;;;;;5115437;28;20220;-61
2021/06/06 12:38:04;;;;;;;39.58;28.00;;;21.30;99.90;;;;;;5115271;28;20199;-62
2021/06/06 12:40:35;;;;;;;38.33;29.02;;;21.30;99.90;;;;;;5115222;28;20200;-62
2021/06/06 12:43:03;;;;;;;35.45;28.65;;;21.30;99.90;;;;;;5115104;28;20667;-61
2021/06/06 12:45:32;;;;;;;36.20;27.50;;;21.30;99.90;;;;;;5115028;28;20268;-61
2021/06/06 12:48:08;;;;;;;35.03;26.90;;;21.30;99.90;;;;;;5115112;28;20204;-60
2021/06/06 12:50:34;;;;;;;33.28;26.60;;;21.30;99.90;;;;;;5115092;28;20643;-59